KLRO Airport Information

Runway Information
Runway 17 Length 3700 ft width 75 ft
Elevation 12 ft Threshold 0 ft Heading 167
Runway 35 Length 3700 ft Width 75 ft
Elevation 12 ft Threshold 0 ft Heading 347
Airport Frequencies
Type A/D Name CHARLESTON Frequency 135.8 MHZ
Type UNIC Name CTAF/UNICO Frequency 122.7 MHZ
Airport Navaids
Airport Weather Information & NOTAM
ADDS - METARS form results

(0904 UTC 14 June 2021)
Data provider http://aviationweather.gov/metar/data/
 
METAR text: KLRO 140855Z AUTO 00000KT 7SM 23/23 A2987 RMK AO2
Conditions at: KLRO (MOUNT PLEASANT , SC, US) observed 0855 UTC 14 June 2021
Temperature: 23.0°C (73°F)
Dewpoint: 23.0°C (73°F) [RH = 100%]
Pressure (altimeter): 29.87 inches Hg (1011.6 mb)
Winds: calm
Visibility: 7 miles (11 km)
Ceiling: unknown
Clouds: missing
Weather: automated observation with no human augmentation;
there may or may not be significant weather present at this time

METAR text: KLRO 140835Z AUTO 00000KT 7SM 23/23 A2987 RMK AO2
Conditions at: KLRO (MOUNT PLEASANT , SC, US) observed 0835 UTC 14 June 2021
Temperature: 23.0°C (73°F)
Dewpoint: 23.0°C (73°F) [RH = 100%]
Pressure (altimeter): 29.87 inches Hg (1011.6 mb)
Winds: calm
Visibility: 7 miles (11 km)
Ceiling: unknown
Clouds: missing
Weather: automated observation with no human augmentation;
there may or may not be significant weather present at this time

METAR text: KLRO 140815Z AUTO 00000KT 5SM BR 23/23 A2986 RMK AO2
Conditions at: KLRO (MOUNT PLEASANT , SC, US) observed 0815 UTC 14 June 2021
Temperature: 23.0°C (73°F)
Dewpoint: 23.0°C (73°F) [RH = 100%]
Pressure (altimeter): 29.86 inches Hg (1011.3 mb)
Winds: calm
Visibility: 5 miles ( 8 km)
Ceiling: unknown
Clouds: missing
Weather: BR  (mist)